VOHY/HYD METAR and TAF weather

Enter ICAO airport designator
Station Type Date Time Source
VOHY METAR 2021/09/24 16:00 UTC NOAA

VOHY 241600Z VRB02KT 6000 FEW015 SCT100 24/22 Q1011 NOSIG


Station Type Date Time Source
VOHY Decoded METAR 2021/09/24 16:00 UTC NOAA

Hyderabad Airport, India (VOHY) 17-27N 078-28E 545M
Sep 24, 2021 - 12:00 PM EDT / 2021.09.24 1600 UTC
Wind: Variable at 2 MPH (2 KT):0
Visibility: 3 mile(s):0
Sky conditions: partly cloudy
Temperature: 75 F (24 C)
Dew Point: 71 F (22 C)
Relative Humidity: 88%
Pressure (altimeter): 29.85 in. Hg (1011 hPa)
ob: VOHY 241600Z VRB02KT 6000 FEW015 SCT100 24/22 Q1011 NOSIG
cycle: 16

Station Type Date Time Source
VOHY TAF 2021/09/10 03:00 UTC NOAA

TAF VOHY 100200Z 1003/1012 23009KT 5000 DZ BR SCT010 BKN015 BKN080
TEMPO 1009/1012 25012KT 3000 RA DZ SCT015 FEW030CB BKN090

Example: see airport list